Time;durP1;ratioP1;P1;durP2;ratioP2;P2;SDS_P1;SDS_P2;PMS_P1;PMS_P2;Temp;Humidity;BMP_temperature;BMP_pressure;BME280_temperature;BME280_humidity;BME280_pressure;Samples;Min_cycle;Max_cycle;Signal;HPM_P1;HPM_P2
2020/12/01 00:00:17;;;;;;;24.00;11.60;;;;;;;-2.46;91.19;98762.59;4953672;29;20042;-86
2020/12/01 00:02:43;;;;;;;27.20;11.52;;;;;;;-2.19;90.62;98783.22;4954017;29;20023;-83
2020/12/01 00:05:10;;;;;;;28.23;12.30;;;;;;;-2.38;90.42;98749.06;4955063;28;20399;-83
2020/12/01 00:07:36;;;;;;;21.60;10.43;;;;;;;-2.36;90.52;98771.16;4955353;29;20024;-85
2020/12/01 00:10:03;;;;;;;22.67;11.52;;;;;;;-2.40;90.77;98772.53;4956717;29;20023;-85
2020/12/01 00:12:29;;;;;;;17.80;10.68;;;;;;;-2.37;90.18;98765.97;4957509;29;20031;-84
2020/12/01 00:14:55;;;;;;;25.38;11.65;;;;;;;-2.53;90.24;98713.50;4956239;29;20063;-78
2020/12/01 00:17:20;;;;;;;18.20;11.48;;;;;;;-2.32;90.57;98774.28;4951326;29;20015;-79
2020/12/01 00:19:45;;;;;;;24.20;12.48;;;;;;;-2.37;90.87;98755.25;4952747;28;20110;-79
2020/12/01 00:22:12;;;;;;;18.85;11.82;;;;;;;-2.57;89.97;98754.28;4951246;29;20020;-77
2020/12/01 00:24:38;;;;;;;26.85;12.93;;;;;;;-2.66;90.53;98752.75;4950945;29;20063;-80
2020/12/01 00:27:03;;;;;;;25.13;9.57;;;;;;;-2.41;90.49;98754.81;4951294;29;20399;-77
2020/12/01 00:29:28;;;;;;;;;;;;;;;-2.57;90.60;98759.63;4951491;29;20075;-78
2020/12/01 00:31:54;;;;;;;27.75;10.88;;;;;;;-2.74;90.35;98737.63;4951170;29;19918;-79
2020/12/01 00:34:19;;;;;;;21.65;10.73;;;;;;;-2.63;90.98;98742.47;4939586;28;20032;-86
2020/12/01 00:36:44;;;;;;;;;;;;;;;-2.53;91.14;98752.84;4936521;28;20022;-84
2020/12/01 00:39:10;;;;;;;22.08;9.50;;;;;;;-2.66;91.73;98756.22;4937807;28;20316;-85
2020/12/01 00:41:37;;;;;;;20.48;10.40;;;;;;;-2.72;91.17;98736.41;4937516;28;20070;-84
2020/12/01 00:44:03;;;;;;;18.67;9.60;;;;;;;-2.59;91.03;98740.22;4935668;28;20033;-85
2020/12/01 00:46:29;;;;;;;24.10;10.80;;;;;;;-2.77;90.28;98738.00;4937133;28;20047;-83
2020/12/01 00:48:55;;;;;;;22.52;11.02;;;;;;;-2.63;90.45;98749.69;4937960;28;20026;-84
2020/12/01 00:51:20;;;;;;;30.65;11.02;;;;;;;-2.75;90.47;98735.97;4937014;28;20074;-82
2020/12/01 00:53:46;;;;;;;28.38;11.55;;;;;;;-2.91;90.63;98752.28;4936613;28;20155;-86
2020/12/01 00:56:12;;;;;;;29.52;10.05;;;;;;;-2.94;91.37;98755.31;4937719;28;20094;-84
2020/12/01 00:58:38;;;;;;;22.30;11.77;;;;;;;-2.77;90.80;98759.44;4936759;28;20028;-85
2020/12/01 01:01:04;;;;;;;25.35;10.90;;;;;;;-2.77;90.71;98735.34;4936127;28;20145;-80
2020/12/01 01:03:40;;;;;;;16.95;10.90;;;;;;;-2.82;91.51;98711.00;4954669;28;20083;-86
2020/12/01 01:06:09;;;;;;;29.17;12.13;;;;;;;-2.55;91.52;98736.16;4928581;28;20039;-83
2020/12/01 01:08:34;;;;;;;22.63;9.10;;;;;;;-2.76;91.57;98715.59;4941697;28;20118;-84
2020/12/01 01:11:00;;;;;;;19.55;10.20;;;;;;;-2.71;91.65;98723.88;4956107;28;20117;-75
2020/12/01 01:13:25;;;;;;;22.58;10.77;;;;;;;-2.74;91.35;98724.25;4938923;28;20019;-78
2020/12/01 01:15:51;;;;;;;23.17;12.10;;;;;;;-2.71;91.21;98726.53;4939047;28;20046;-77
2020/12/01 01:18:16;;;;;;;18.13;8.82;;;;;;;-2.75;91.00;98717.22;4938533;28;20035;-80
2020/12/01 01:20:41;;;;;;;22.88;10.77;;;;;;;-2.72;91.25;98725.72;4956029;28;20040;-83
2020/12/01 01:23:07;;;;;;;18.75;9.85;;;;;;;-2.55;90.80;98728.13;4956871;28;20042;-85
2020/12/01 01:25:32;;;;;;;23.02;11.52;;;;;;;-2.72;90.50;98719.53;4938549;28;20031;-83
2020/12/01 01:27:58;;;;;;;16.48;9.70;;;;;;;-2.77;91.26;98711.25;4922905;28;20039;-82
2020/12/01 01:30:24;;;;;;;18.63;10.13;;;;;;;-2.75;91.25;98714.56;4937769;28;20511;-86
2020/12/01 01:32:50;;;;;;;14.18;8.90;;;;;;;-2.76;91.72;98712.91;4936965;28;20035;-82
2020/12/01 01:35:16;;;;;;;24.30;9.20;;;;;;;-2.82;93.10;98713.69;4937640;28;20035;-77
2020/12/01 01:37:41;;;;;;;15.85;9.52;;;;;;;-3.04;92.58;98704.84;4955097;28;20034;-77
2020/12/01 01:40:14;;;;;;;19.20;11.00;;;;;;;-2.93;93.23;98706.16;4954549;28;20385;-84
2020/12/01 01:42:40;;;;;;;17.90;10.23;;;;;;;-3.01;92.71;98683.03;4939121;29;20027;-76
2020/12/01 01:45:05;;;;;;;20.90;10.38;;;;;;;-2.92;92.30;98697.13;4954589;28;20405;-80
2020/12/01 01:47:31;;;;;;;22.05;9.65;;;;;;;-3.01;92.81;98700.94;4970291;28;20110;-78
2020/12/01 01:50:04;;;;;;;19.88;9.88;;;;;;;-3.22;93.01;98663.47;4967470;28;20155;-84
2020/12/01 01:52:38;;;;;;;22.00;9.68;;;;;;;-3.23;92.82;98684.06;4947637;29;20030;-84
2020/12/01 01:55:16;;;;;;;14.77;9.25;;;;;;;-3.32;92.96;98675.31;4938952;29;20051;-83
2020/12/01 01:57:45;;;;;;;18.20;8.70;;;;;;;-3.23;92.66;98672.53;4956397;29;20511;-86
2020/12/01 02:00:30;;;;;;;18.30;9.45;;;;;;;-3.32;92.47;98669.94;4946407;28;20021;-83
2020/12/01 02:02:55;;;;;;;16.70;9.32;;;;;;;-3.24;92.32;98650.28;4957566;28;20033;-83
2020/12/01 02:05:21;;;;;;;23.42;10.40;;;;;;;-3.18;92.35;98676.28;4957906;28;20030;-79
2020/12/01 02:07:46;;;;;;;19.38;8.98;;;;;;;-3.16;92.17;98663.53;4958118;28;20439;-78
2020/12/01 02:10:11;;;;;;;18.02;10.00;;;;;;;-3.11;92.00;98660.28;4958421;28;20023;-85
2020/12/01 02:12:40;;;;;;;17.13;9.90;;;;;;;-3.21;91.82;98643.72;4958121;28;20072;-85
2020/12/01 02:15:09;;;;;;;19.95;9.65;;;;;;;-3.25;91.69;98648.63;4958129;28;20034;-84
2020/12/01 02:17:36;;;;;;;18.90;10.45;;;;;;;-3.31;92.01;98660.09;4957116;28;20015;-84
2020/12/01 02:20:12;;;;;;;20.15;10.07;;;;;;;-3.42;91.80;98647.22;4957825;28;20081;-82
2020/12/01 02:22:41;;;;;;;20.08;9.02;;;;;;;-3.52;91.91;98658.22;4958257;28;20026;-84
2020/12/01 02:25:06;;;;;;;25.13;10.80;;;;;;;-3.28;92.25;98663.22;4958048;28;20058;-80
2020/12/01 02:27:31;;;;;;;22.40;10.70;;;;;;;-3.10;91.36;98653.94;4975362;28;20105;-84
2020/12/01 02:29:59;;;;;;;14.27;8.10;;;;;;;-3.19;91.09;98641.69;4975535;28;20031;-85
2020/12/01 02:32:26;;;;;;;23.00;8.65;;;;;;;-3.31;91.50;98631.50;4958547;28;20026;-83
2020/12/01 02:34:58;;;;;;;17.52;9.63;;;;;;;-3.34;91.35;98625.72;4958161;28;20038;-84
2020/12/01 02:37:28;;;;;;;22.88;10.20;;;;;;;-3.18;91.08;98644.19;4976214;28;20023;-85
2020/12/01 02:39:54;;;;;;;16.20;9.68;;;;;;;-3.33;91.54;98638.06;4958536;28;20093;-85
2020/12/01 02:42:24;;;;;;;14.35;8.52;;;;;;;-3.34;91.67;98625.72;4958401;28;20027;-84
2020/12/01 02:44:54;;;;;;;15.43;8.07;;;;;;;-3.48;91.73;98603.38;4958755;28;20062;-84
2020/12/01 02:47:20;;;;;;;19.98;9.25;;;;;;;-3.41;90.88;98617.63;4959347;28;20035;-83
2020/12/01 02:49:45;;;;;;;18.92;9.35;;;;;;;-3.62;91.42;98604.25;4952890;28;20015;-83
2020/12/01 02:52:12;;;;;;;15.63;7.53;;;;;;;-3.61;92.16;98603.25;4940873;28;20027;-85
2020/12/01 02:54:37;;;;;;;21.42;10.13;;;;;;;-3.60;92.02;98618.25;4957474;28;20043;-85
2020/12/01 02:57:03;;;;;;;20.05;10.23;;;;;;;-3.78;92.10;98625.84;4940900;28;20034;-86
2020/12/01 02:59:28;;;;;;;17.88;9.15;;;;;;;-3.55;92.57;98626.53;4941620;28;20075;-85
2020/12/01 03:01:54;;;;;;;14.35;8.82;;;;;;;-3.62;92.22;98630.13;4946013;28;20038;-84
2020/12/01 03:04:19;;;;;;;16.95;8.75;;;;;;;-3.66;91.71;98619.00;4945047;28;20100;-82
2020/12/01 03:06:45;;;;;;;16.13;9.05;;;;;;;-3.58;92.17;98632.25;4945855;28;20031;-81
2020/12/01 03:09:15;;;;;;;13.48;7.95;;;;;;;-3.68;92.20;98623.72;4940461;28;20012;-85
2020/12/01 03:11:41;;;;;;;22.02;9.23;;;;;;;-3.89;92.36;98642.38;4937946;28;20090;-80
2020/12/01 03:14:07;;;;;;;19.92;9.30;;;;;;;-3.93;91.95;98633.06;4937663;28;20020;-83
2020/12/01 03:16:33;;;;;;;16.17;9.85;;;;;;;-3.87;91.72;98632.31;4937498;28;20019;-84
2020/12/01 03:18:59;;;;;;;19.67;8.82;;;;;;;-3.93;91.65;98633.06;4938541;28;20051;-84
2020/12/01 03:21:25;;;;;;;18.20;9.52;;;;;;;-3.97;91.01;98629.94;4955243;28;20054;-85
2020/12/01 03:23:50;;;;;;;15.02;8.73;;;;;;;-4.14;91.51;98603.63;4938578;28;20050;-83
2020/12/01 03:26:18;;;;;;;21.20;11.00;;;;;;;-4.02;91.43;98624.34;4937983;28;20051;-85
2020/12/01 03:28:44;;;;;;;23.50;10.43;;;;;;;-4.23;91.90;98599.41;4936478;28;20031;-85
2020/12/01 03:31:12;;;;;;;24.27;11.02;;;;;;;-4.21;92.51;98608.88;4937298;28;20432;-83
2020/12/01 03:33:38;;;;;;;18.02;11.30;;;;;;;-4.44;92.80;98584.97;4937192;28;20031;-83
2020/12/01 03:36:03;;;;;;;14.70;9.63;;;;;;;-4.32;92.65;98610.19;4953816;28;20031;-80
2020/12/01 03:38:29;;;;;;;15.30;7.60;;;;;;;-4.36;92.62;98616.91;4957771;28;20031;-83
2020/12/01 03:40:54;;;;;;;17.35;10.38;;;;;;;-4.37;93.60;98609.06;4940907;28;20047;-85
2020/12/01 03:43:19;;;;;;;14.77;8.60;;;;;;;-4.34;94.40;98596.19;4939873;28;20027;-84
2020/12/01 03:45:45;;;;;;;16.95;9.93;;;;;;;-4.32;94.31;98602.16;4939548;28;20031;-86
2020/12/01 03:48:11;;;;;;;16.92;11.50;;;;;;;-4.42;93.96;98603.47;4921034;28;20027;-83
2020/12/01 03:50:37;;;;;;;17.13;9.68;;;;;;;-4.40;94.25;98598.78;4936938;28;20031;-85
2020/12/01 03:53:03;;;;;;;22.08;10.23;;;;;;;-4.46;94.78;98576.31;4937232;28;20031;-85
2020/12/01 03:55:28;;;;;;;16.08;9.38;;;;;;;-4.43;94.33;98586.63;4938767;28;20038;-85
2020/12/01 03:57:54;;;;;;;19.58;10.23;;;;;;;-4.51;94.42;98575.22;4938626;28;20023;-83
2020/12/01 04:00:23;;;;;;;13.77;8.52;;;;;;;-4.36;94.41;98595.56;4936971;28;20754;-83
2020/12/01 04:02:48;;;;;;;14.30;8.20;;;;;;;-4.44;94.21;98587.63;4936690;28;20023;-84
2020/12/01 04:05:17;;;;;;;17.00;9.52;;;;;;;-4.42;94.59;98587.47;4938492;28;20039;-86
2020/12/01 04:07:44;;;;;;;16.35;8.15;;;;;;;-4.19;93.59;98582.81;4938512;28;20027;-84
2020/12/01 04:10:12;;;;;;;20.65;9.90;;;;;;;-4.23;93.00;98578.88;4940031;28;20015;-85
2020/12/01 04:12:37;;;;;;;13.20;8.63;;;;;;;-4.46;93.96;98589.66;4939971;28;20031;-85
2020/12/01 04:15:03;;;;;;;15.52;7.95;;;;;;;-4.25;93.61;98596.09;4941505;28;20031;-85
2020/12/01 04:17:29;;;;;;;15.02;9.43;;;;;;;-4.17;93.12;98571.97;4941676;28;20035;-86
2020/12/01 04:19:54;;;;;;;14.15;8.52;;;;;;;-4.43;93.63;98581.28;4941314;28;20564;-86
2020/12/01 04:22:20;;;;;;;16.45;9.70;;;;;;;-4.52;93.61;98555.72;4942097;28;20019;-86
2020/12/01 04:24:45;;;;;;;17.02;8.70;;;;;;;-4.59;94.78;98576.13;4941301;28;20038;-85
2020/12/01 04:27:12;;;;;;;14.07;8.05;;;;;;;-4.44;94.86;98584.97;4938880;28;20034;-82
2020/12/01 04:29:38;;;;;;;18.35;10.57;;;;;;;-4.56;95.24;98573.09;4938061;28;20031;-83
2020/12/01 04:32:04;;;;;;;13.70;7.82;;;;;;;-4.55;96.17;98577.44;4938427;28;20480;-85
2020/12/01 04:34:31;;;;;;;19.48;8.70;;;;;;;-4.70;96.87;98583.78;4938980;28;20027;-85
2020/12/01 04:36:56;;;;;;;13.98;6.72;;;;;;;-4.83;97.55;98583.56;4938054;28;20027;-86
2020/12/01 04:39:22;;;;;;;14.60;9.35;;;;;;;-5.02;98.30;98560.94;4937883;28;20090;-86
2020/12/01 04:41:48;;;;;;;13.68;7.13;;;;;;;-4.89;98.63;98585.94;4938075;28;20051;-81
2020/12/01 04:44:27;;;;;;;15.45;7.00;;;;;;;-4.75;99.30;98568.31;4943377;28;20508;-83
2020/12/01 04:46:55;;;;;;;10.52;7.97;;;;;;;-4.69;98.94;98572.06;4939179;28;20086;-84
2020/12/01 04:49:25;;;;;;;15.57;8.02;;;;;;;-4.36;99.26;98574.22;4939734;28;20039;-84
2020/12/01 04:52:01;;;;;;;18.27;8.38;;;;;;;-4.60;98.98;98563.81;4938917;28;20027;-87
2020/12/01 04:54:29;;;;;;;24.25;8.98;;;;;;;-4.45;99.68;98585.16;4957792;28;20074;-87
2020/12/01 04:57:32;;;;;;;20.02;9.57;;;;;;;-4.48;99.59;98574.88;4940619;28;20041;-84
2020/12/01 05:00:00;;;;;;;13.35;7.78;;;;;;;-4.65;99.92;98570.72;4939210;28;20059;-85
2020/12/01 05:02:56;;;;;;;19.52;9.27;;;;;;;-4.66;100.00;98580.53;4938819;28;20031;-84
2020/12/01 05:05:57;;;;;;;17.15;9.52;;;;;;;-4.69;100.00;98586.25;4939525;28;20046;-87
2020/12/01 05:08:32;;;;;;;14.00;8.02;;;;;;;-4.72;100.00;98575.94;4939828;29;20036;-85
2020/12/01 05:11:25;;;;;;;14.32;9.55;;;;;;;-4.62;100.00;98568.50;4941952;28;20046;-85
2020/12/01 05:14:03;;;;;;;17.27;8.52;;;;;;;-4.55;100.00;98569.44;4942783;28;20031;-85
2020/12/01 05:16:35;;;;;;;27.20;9.52;;;;;;;-4.40;99.66;98578.25;4943953;28;20439;-87
2020/12/01 05:19:00;;;;;;;25.60;9.63;;;;;;;-4.34;99.61;98574.84;4940950;28;20028;-86
2020/12/01 05:21:26;;;;;;;18.75;8.90;;;;;;;-4.23;99.26;98564.72;4943947;28;20365;-87
2020/12/01 05:23:52;;;;;;;18.20;9.00;;;;;;;-4.26;98.77;98573.09;4942329;28;20023;-86
2020/12/01 05:26:22;;;;;;;17.45;10.80;;;;;;;-4.28;98.99;98559.09;4939398;28;20020;-83
2020/12/01 05:28:54;;;;;;;20.17;9.77;;;;;;;-4.39;99.20;98574.56;4939721;28;20034;-84
2020/12/01 05:31:22;;;;;;;21.80;10.63;;;;;;;-4.42;99.63;98550.91;4949152;29;20031;-85
2020/12/01 05:34:01;;;;;;;42.97;17.02;;;;;;;-4.43;100.00;98551.94;4952890;29;20067;-86
2020/12/01 05:36:35;;;;;;;22.92;12.05;;;;;;;-4.47;99.44;98552.47;4955398;29;20489;-86
2020/12/01 05:39:00;;;;;;;23.15;11.77;;;;;;;-4.46;99.16;98552.31;4955048;29;20034;-83
2020/12/01 05:41:36;;;;;;;21.02;9.38;;;;;;;-4.36;98.46;98542.19;4954185;29;20034;-86
2020/12/01 05:44:15;;;;;;;17.90;8.90;;;;;;;-4.35;96.86;98554.50;4953189;29;20058;-84
2020/12/01 05:47:02;;;;;;;15.77;8.32;;;;;;;-4.68;96.99;98537.22;4952472;29;20055;-87
2020/12/01 05:49:42;;;;;;;;;;;;;;;-4.59;97.54;98552.13;4953263;29;20028;-85
2020/12/01 05:52:14;;;;;;;19.92;10.02;;;;;;;-4.60;97.70;98545.13;4954758;28;19918;-85
2020/12/01 05:54:43;;;;;;;19.08;10.77;;;;;;;-4.58;98.47;98559.13;4956809;29;20039;-85
2020/12/01 05:57:26;;;;;;;23.67;9.40;;;;;;;-4.56;98.74;98525.06;4957412;29;20058;-85
2020/12/01 06:00:07;;;;;;;27.65;10.82;;;;;;;-4.71;99.08;98526.94;4957110;29;20023;-85
2020/12/01 06:03:02;;;;;;;22.42;9.95;;;;;;;-4.60;99.55;98542.44;4943412;29;20027;-84
2020/12/01 06:05:28;;;;;;;22.83;10.60;;;;;;;-4.35;99.63;98537.63;4922383;29;20835;-83
2020/12/01 06:08:03;;;;;;;19.33;11.52;;;;;;;-4.42;99.26;98548.22;4921307;29;20064;-87
2020/12/01 06:10:41;;;;;;;17.05;11.38;;;;;;;-4.38;99.68;98549.53;4955953;28;20058;-78
2020/12/01 06:13:41;;;;;;;21.45;9.02;;;;;;;-4.38;99.36;98536.19;4971977;28;20078;-78
2020/12/01 06:16:28;;;;;;;17.45;9.63;;;;;;;-4.48;99.23;98540.97;4967490;28;20046;-80
2020/12/01 06:19:02;;;;;;;18.48;11.52;;;;;;;-4.53;98.64;98543.38;4954119;28;20029;-77
2020/12/01 06:22:05;;;;;;;15.75;10.52;;;;;;;-4.51;98.01;98540.53;4969961;28;20492;-79
2020/12/01 06:25:15;;;;;;;16.38;9.10;;;;;;;-4.56;97.65;98542.91;4953922;28;20022;-83
2020/12/01 06:27:57;;;;;;;12.18;8.15;;;;;;;-4.66;97.57;98519.19;4956150;28;20085;-81
2020/12/01 06:30:39;;;;;;;20.05;8.82;;;;;;;-4.31;97.95;98533.59;4952511;28;20058;-80
2020/12/01 06:33:21;;;;;;;20.52;9.40;;;;;;;-4.25;97.81;98545.34;4933180;28;20102;-80
2020/12/01 06:36:21;;;;;;;27.35;10.48;;;;;;;-4.30;97.87;98539.75;4941346;28;20033;-79
2020/12/01 06:38:53;;;;;;;15.90;9.07;;;;;;;-4.30;98.17;98542.44;4948425;28;20597;-83
2020/12/01 06:41:23;;;;;;;21.80;10.80;;;;;;;-4.20;98.44;98532.28;4963982;28;20031;-74
2020/12/01 06:43:57;;;;;;;18.70;10.48;;;;;;;-4.13;97.61;98535.84;4973708;28;20023;-77
2020/12/01 06:46:45;;;;;;;20.65;11.18;;;;;;;-4.10;97.47;98530.16;4944025;29;20028;-81
2020/12/01 06:49:17;;;;;;;18.17;10.00;;;;;;;-3.91;97.15;98526.84;4960673;29;20033;-75
2020/12/01 06:51:48;;;;;;;20.92;10.27;;;;;;;-3.84;96.66;98530.44;4959759;28;20075;-75
2020/12/01 06:54:14;;;;;;;19.48;10.93;;;;;;;-3.64;96.53;98535.97;4972395;28;20134;-75
2020/12/01 06:56:40;;;;;;;22.73;8.77;;;;;;;-3.67;96.01;98531.84;4954841;28;20125;-75
2020/12/01 06:59:11;;;;;;;17.00;9.00;;;;;;;-3.46;95.62;98537.19;4955890;28;20205;-76
2020/12/01 07:01:39;;;;;;;22.92;10.18;;;;;;;-3.53;95.32;98538.97;4976936;28;20511;-78
2020/12/01 07:04:26;;;;;;;20.55;12.00;;;;;;;-3.59;94.92;98538.88;4969069;28;20089;-83
2020/12/01 07:07:01;;;;;;;20.30;10.15;;;;;;;-3.62;95.26;98524.06;4945413;29;20039;-85
2020/12/01 07:09:41;;;;;;;28.25;10.93;;;;;;;-3.64;95.31;98525.28;4956421;29;20082;-86
2020/12/01 07:12:12;;;;;;;20.48;11.00;;;;;;;-3.50;95.06;98533.22;4944190;29;20031;-86
2020/12/01 07:14:43;;;;;;;17.73;9.15;;;;;;;-3.44;95.46;98543.16;4941947;29;20485;-87
2020/12/01 07:17:19;;;;;;;20.00;10.82;;;;;;;-3.45;94.86;98521.97;4941662;29;20019;-86
2020/12/01 07:19:54;;;;;;;17.55;10.27;;;;;;;-3.45;95.34;98527.31;4942996;29;20028;-87
2020/12/01 07:22:44;;;;;;;17.00;11.30;;;;;;;-3.03;95.86;98523.72;4950376;29;20034;-87
2020/12/01 07:25:22;;;;;;;22.48;11.43;;;;;;;-2.75;95.14;98528.03;4960145;29;21782;-85
2020/12/01 07:28:21;;;;;;;23.75;12.43;;;;;;;-2.78;93.47;98532.94;4949732;28;20035;-84
2020/12/01 07:30:46;;;;;;;17.85;9.57;;;;;;;-2.72;94.08;98537.50;4942361;28;20030;-83
2020/12/01 07:33:15;;;;;;;17.30;11.07;;;;;;;-3.03;92.98;98526.41;4942022;29;20674;-85
2020/12/01 07:35:49;;;;;;;22.23;11.30;;;;;;;-3.04;93.41;98527.44;4939221;29;20078;-83
2020/12/01 07:38:25;;;;;;;21.58;11.55;;;;;;;-2.90;93.25;98515.78;4939856;29;20027;-85
2020/12/01 07:40:55;;;;;;;25.83;10.23;;;;;;;-3.02;92.61;98526.22;4955522;29;20023;-79
2020/12/01 07:43:21;;;;;;;19.33;12.45;;;;;;;-2.94;93.52;98528.72;4953071;29;20033;-84
2020/12/01 07:45:49;;;;;;;26.70;11.23;;;;;;;-3.02;93.04;98522.72;4952724;29;20576;-78
2020/12/01 07:48:17;;;;;;;26.08;11.20;;;;;;;-2.95;93.24;98523.59;4936225;29;20027;-82
2020/12/01 07:50:43;;;;;;;20.67;11.77;;;;;;;-2.93;92.76;98532.25;4938997;29;20062;-85
2020/12/01 07:53:14;;;;;;;20.38;13.18;;;;;;;-2.97;92.54;98517.59;4953109;29;20062;-87
2020/12/01 07:56:01;;;;;;;25.48;13.75;;;;;;;-2.88;93.20;98522.59;4938036;29;20484;-85
2020/12/01 07:58:28;;;;;;;21.52;9.48;;;;;;;-2.80;92.33;98519.78;4954260;29;20487;-83
2020/12/01 08:00:57;;;;;;;30.33;15.75;;;;;;;-2.89;92.22;98504.06;4955509;29;20066;-87
2020/12/01 08:03:36;;;;;;;27.95;13.73;;;;;;;-2.90;92.81;98513.13;4936831;29;20146;-86
2020/12/01 08:06:10;;;;;;;20.73;12.20;;;;;;;-2.76;92.37;98507.63;4936406;29;20045;-81
2020/12/01 08:08:44;;;;;;;17.52;12.48;;;;;;;-2.66;92.49;98509.16;4937794;29;20078;-84
2020/12/01 08:11:14;;;;;;;31.00;12.20;;;;;;;-2.59;91.80;98502.81;4974141;28;20097;-84
2020/12/01 08:13:41;;;;;;;65.82;18.05;;;;;;;-2.43;92.00;98502.47;4956435;28;20061;-84
2020/12/01 08:16:28;;;;;;;23.58;12.32;;;;;;;-2.33;91.73;98510.97;4956178;28;20030;-83
2020/12/01 08:18:54;;;;;;;21.38;11.10;;;;;;;-2.42;91.64;98500.63;4953448;28;20502;-84
2020/12/01 08:21:32;;;;;;;24.65;11.48;;;;;;;-2.30;92.06;98509.72;4956790;28;20488;-85
2020/12/01 08:24:02;;;;;;;23.85;12.60;;;;;;;-2.22;91.56;98512.22;4953690;28;20784;-87
2020/12/01 08:26:34;;;;;;;28.40;13.43;;;;;;;-2.35;91.41;98523.72;4938966;29;20744;-85
2020/12/01 08:29:23;;;;;;;22.77;11.93;;;;;;;-2.11;91.79;98514.34;4947074;28;20023;-83
2020/12/01 08:32:16;;;;;;;23.33;12.77;;;;;;;-2.06;91.73;98503.00;4936593;28;20448;-83
2020/12/01 08:35:18;;;;;;;23.67;12.75;;;;;;;-2.08;91.22;98502.41;4935563;28;20110;-85
2020/12/01 08:37:54;;;;;;;23.85;12.10;;;;;;;-2.03;91.48;98510.63;4934055;28;20070;-85
2020/12/01 08:40:45;;;;;;;28.08;14.35;;;;;;;-2.01;91.48;98504.06;4936615;28;20118;-84
2020/12/01 08:44:10;;;;;;;25.58;13.68;;;;;;;-2.08;91.78;98502.41;4936209;28;20046;-83
2020/12/01 08:46:42;;;;;;;24.48;13.68;;;;;;;-2.09;92.00;98495.38;4897136;29;20224;-83
2020/12/01 08:49:41;;;;;;;18.20;10.98;;;;;;;-2.04;91.75;98501.81;4911402;29;20043;-87
2020/12/01 08:52:25;;;;;;;22.33;12.20;;;;;;;-1.87;92.55;98499.56;4941849;28;20051;-85
2020/12/01 08:54:55;;;;;;;22.77;12.68;;;;;;;-1.76;91.83;98482.91;4935934;28;20504;-81
2020/12/01 08:57:41;;;;;;;26.92;12.40;;;;;;;-1.18;90.56;98490.13;4952842;28;20034;-83
2020/12/01 09:00:16;;;;;;;31.10;11.68;;;;;;;-1.62;90.27;98489.91;4951900;28;20061;-85
2020/12/01 09:02:50;;;;;;;24.90;12.40;;;;;;;-1.80;90.59;98474.44;4949989;28;20049;-87
2020/12/01 09:05:46;;;;;;;21.90;13.32;;;;;;;-1.83;90.52;98492.78;4952606;28;20124;-83
2020/12/01 09:17:26;;;;;;;21.95;11.65;;;;;;;-1.94;91.45;98469.25;4912906;29;20042;-84
2020/12/01 09:20:18;;;;;;;25.08;14.10;;;;;;;-1.90;91.56;98465.13;4911409;29;20040;-86
2020/12/01 09:22:46;;;;;;;20.80;11.50;;;;;;;-1.75;92.06;98471.94;4891684;29;20065;-88
2020/12/01 09:25:20;;;;;;;34.90;13.13;;;;;;;-1.60;91.65;98471.78;4905439;29;20051;-82
2020/12/01 09:27:47;;;;;;;20.00;12.88;;;;;;;-1.69;91.54;98462.25;4898904;28;20465;-81
2020/12/01 09:30:37;;;;;;;22.95;12.18;;;;;;;-1.74;91.07;98452.16;4974467;28;20037;-82
2020/12/01 09:33:04;;;;;;;23.15;11.50;;;;;;;-1.81;91.41;98445.13;4969237;28;20117;-81
2020/12/01 09:35:30;;;;;;;18.77;11.98;;;;;;;-1.70;91.54;98447.22;4974222;28;20027;-82
2020/12/01 09:37:56;;;;;;;24.80;13.40;;;;;;;-1.57;91.18;98449.09;4956924;28;20035;-82
2020/12/01 09:40:24;;;;;;;23.95;12.70;;;;;;;-1.49;91.76;98459.59;4958734;28;20045;-84
2020/12/01 09:42:53;;;;;;;18.52;12.07;;;;;;;-1.46;90.40;98453.81;4958445;28;20439;-84
2020/12/01 09:45:22;;;;;;;25.33;12.05;;;;;;;-1.48;90.07;98456.72;4957902;28;20031;-83
2020/12/01 09:50:27;;;;;;;16.75;11.27;;;;;;;-1.46;90.14;98448.44;4975188;28;20030;-84
2020/12/01 09:58:21;;;;;;;37.28;14.32;;;;;;;-1.14;90.42;98452.97;4976537;28;20081;-87
2020/12/01 10:04:51;;;;;;;39.47;17.20;;;;;;;-0.90;90.65;98436.19;4977236;28;20121;-85
2020/12/01 10:09:01;;;;;;;46.42;14.25;;;;;;;-0.84;90.58;98426.47;4940018;29;20038;-87
2020/12/01 10:25:42;;;;;;;28.42;14.05;;;;;;;-0.55;89.85;98383.00;4958067;28;20046;-85
2020/12/01 10:36:17;;;;;;;26.83;14.13;;;;;;;0.00;87.97;98376.88;4968220;28;20074;-90
2020/12/01 10:38:42;;;;;;;23.77;13.30;;;;;;;1.08;90.77;98374.66;4942748;29;20035;-76
2020/12/01 10:41:08;;;;;;;;;;;;;;;0.77;88.13;98370.22;4957785;29;20045;-86
2020/12/01 10:43:34;;;;;;;24.25;13.32;;;;;;;0.91;86.84;98368.19;4940421;29;19921;-87
2020/12/01 10:45:59;;;;;;;22.30;12.15;;;;;;;0.24;86.39;98339.47;4938705;29;20820;-85
2020/12/01 10:48:25;;;;;;;23.65;13.57;;;;;;;0.23;89.19;98360.16;4939999;29;20484;-78
2020/12/01 10:50:50;;;;;;;23.33;12.98;;;;;;;-0.03;88.73;98360.34;4936220;29;20024;-80
2020/12/01 10:53:15;;;;;;;17.95;12.77;;;;;;;0.35;88.96;98362.94;4935822;29;20035;-78
2020/12/01 10:55:41;;;;;;;26.25;13.15;;;;;;;-0.06;87.77;98344.66;4963890;28;20031;-86
2020/12/01 10:58:06;;;;;;;;;;;;;;;0.17;88.66;98347.59;4959055;28;20085;-87
2020/12/01 11:00:32;;;;;;;27.67;13.70;;;;;;;0.09;87.89;98341.66;4957932;28;20363;-86
2020/12/01 11:02:57;;;;;;;25.52;12.40;;;;;;;1.19;86.32;98341.56;4958257;28;20377;-88
2020/12/01 11:05:27;;;;;;;20.55;12.18;;;;;;;0.24;86.15;98348.38;4935121;28;20085;-85
2020/12/01 11:07:52;;;;;;;31.42;14.23;;;;;;;-0.23;88.37;98330.94;4960761;28;20026;-85
2020/12/01 11:10:18;;;;;;;20.75;12.02;;;;;;;-0.02;87.76;98345.88;4954418;28;20029;-87
2020/12/01 11:12:43;;;;;;;;;;;;;;;-0.17;87.54;98342.69;4944977;28;20039;-83
2020/12/01 11:15:09;;;;;;;19.85;10.25;;;;;;;-0.52;88.56;98328.84;4938566;28;19945;-84
2020/12/01 11:17:35;;;;;;;20.38;11.38;;;;;;;-0.64;89.23;98349.38;4938892;29;20118;-85
2020/12/01 11:20:00;;;;;;;;;;;;;;;-0.70;89.85;98334.09;4940318;28;20023;-84
2020/12/01 11:22:25;;;;;;;20.55;12.00;;;;;;;-0.74;90.24;98325.66;4940421;28;20001;-86
2020/12/01 11:24:51;;;;;;;20.90;12.35;;;;;;;-0.51;90.14;98324.28;4941627;28;20034;-87
2020/12/01 11:27:16;;;;;;;24.10;11.52;;;;;;;-0.76;89.88;98310.81;4950214;29;20027;-85
2020/12/01 11:29:44;;;;;;;21.55;12.30;;;;;;;-0.61;90.03;98327.44;4958449;29;20039;-87
2020/12/01 11:32:09;;;;;;;21.17;12.77;;;;;;;-0.71;89.90;98316.34;4926765;28;20038;-86
2020/12/01 11:34:34;;;;;;;19.83;12.73;;;;;;;-0.65;89.83;98312.78;4962104;28;20030;-85
2020/12/01 11:37:00;;;;;;;;;;;;;;;-0.38;89.40;98318.84;4962363;28;20584;-89
2020/12/01 11:39:25;;;;;;;20.92;11.65;;;;;;;-0.46;89.19;98314.53;4962039;28;19918;-89
2020/12/01 11:41:51;;;;;;;25.10;12.25;;;;;;;-0.51;88.92;98317.06;4946477;28;20039;-88
2020/12/01 11:44:18;;;;;;;21.88;11.90;;;;;;;-0.47;89.15;98317.47;4964676;28;20090;-91
2020/12/01 11:46:45;;;;;;;24.48;12.18;;;;;;;-0.01;89.32;98316.09;4945167;28;20035;-86
2020/12/01 11:49:11;;;;;;;20.52;12.85;;;;;;;0.09;87.76;98288.72;4950022;28;20046;-88
2020/12/01 11:51:39;;;;;;;20.20;13.25;;;;;;;0.21;86.92;98319.22;4968346;28;20033;-88
2020/12/01 11:54:06;;;;;;;28.65;12.07;;;;;;;-0.02;87.34;98306.38;4983622;28;20412;-86
2020/12/01 11:56:32;;;;;;;24.15;13.50;;;;;;;-0.02;87.59;98292.09;4954360;29;20035;-87
2020/12/01 11:58:59;;;;;;;27.38;13.98;;;;;;;-0.05;87.92;98301.44;4958029;28;20045;-88
2020/12/01 12:01:24;;;;;;;27.42;15.27;;;;;;;-0.06;87.99;98302.47;4975255;28;20069;-86
2020/12/01 12:03:50;;;;;;;28.40;14.07;;;;;;;-0.06;87.76;98288.19;4960907;28;20685;-91
2020/12/01 12:06:16;;;;;;;;;;;;;;;-0.01;87.85;98289.22;4957729;28;20050;-88
2020/12/01 12:08:58;;;;;;;25.60;14.13;;;;;;;0.20;87.27;98284.47;4966290;28;19972;-89
2020/12/01 12:11:24;;;;;;;30.67;12.95;;;;;;;0.14;86.77;98279.97;4961139;28;20038;-86
2020/12/01 12:13:49;;;;;;;22.45;12.95;;;;;;;0.15;87.16;98276.25;4946529;28;20039;-89
2020/12/01 12:16:18;;;;;;;25.83;14.95;;;;;;;0.16;87.21;98267.94;4943757;28;20031;-91
2020/12/01 12:18:44;;;;;;;25.35;13.73;;;;;;;0.23;86.83;98279.47;4960150;28;20038;-88
2020/12/01 12:21:10;;;;;;;22.73;13.48;;;;;;;0.44;86.58;98267.47;4977235;28;20031;-86
2020/12/01 12:23:36;;;;;;;25.92;12.40;;;;;;;0.41;85.30;98273.28;4957690;28;20118;-83